sensor_id;sensor_type;location;lat;lon;timestamp;pressure;altitude;pressure_sealevel;temperature
29423;BMP180;16399;51.686;8.684;2023-03-12T00:02:59;99596.00;;;-0.70
29423;BMP180;16399;51.686;8.684;2023-03-12T00:06:02;99591.00;;;-0.60
29423;BMP180;16399;51.686;8.684;2023-03-12T00:09:05;99599.00;;;-0.60
29423;BMP180;16399;51.686;8.684;2023-03-12T00:12:09;99596.00;;;-0.60
29423;BMP180;16399;51.686;8.684;2023-03-12T00:15:11;99600.00;;;-0.50
29423;BMP180;16399;51.686;8.684;2023-03-12T00:18:13;99593.00;;;-0.50
29423;BMP180;16399;51.686;8.684;2023-03-12T00:21:16;99594.00;;;-0.50
29423;BMP180;16399;51.686;8.684;2023-03-12T00:24:19;99588.00;;;-0.40
29423;BMP180;16399;51.686;8.684;2023-03-12T00:27:22;99593.00;;;-0.40
29423;BMP180;16399;51.686;8.684;2023-03-12T00:30:25;99583.00;;;-0.40
29423;BMP180;16399;51.686;8.684;2023-03-12T00:33:30;99582.00;;;-0.40
29423;BMP180;16399;51.686;8.684;2023-03-12T00:36:33;99576.00;;;-0.30
29423;BMP180;16399;51.686;8.684;2023-03-12T00:39:35;99578.00;;;-0.30
29423;BMP180;16399;51.686;8.684;2023-03-12T00:42:37;99582.00;;;-0.20
29423;BMP180;16399;51.686;8.684;2023-03-12T00:45:40;99578.00;;;-0.20
29423;BMP180;16399;51.686;8.684;2023-03-12T00:48:42;99572.00;;;-0.20
29423;BMP180;16399;51.686;8.684;2023-03-12T00:51:45;99563.00;;;-0.10
29423;BMP180;16399;51.686;8.684;2023-03-12T00:54:47;99568.00;;;-0.10
29423;BMP180;16399;51.686;8.684;2023-03-12T00:57:49;99557.00;;;-0.10
29423;BMP180;16399;51.686;8.684;2023-03-12T01:00:52;99563.00;;;-0.10
29423;BMP180;16399;51.686;8.684;2023-03-12T01:03:54;99568.00;;;-0.10
29423;BMP180;16399;51.686;8.684;2023-03-12T01:06:58;99555.00;;;-0.10
29423;BMP180;16399;51.686;8.684;2023-03-12T01:10:00;99550.00;;;0.00
29423;BMP180;16399;51.686;8.684;2023-03-12T01:13:03;99556.00;;;0.00
29423;BMP180;16399;51.686;8.684;2023-03-12T01:16:05;99545.00;;;-0.10
29423;BMP180;16399;51.686;8.684;2023-03-12T01:19:08;99550.00;;;0.00
29423;BMP180;16399;51.686;8.684;2023-03-12T01:22:10;99546.00;;;0.00
29423;BMP180;16399;51.686;8.684;2023-03-12T01:25:12;99534.00;;;0.00
29423;BMP180;16399;51.686;8.684;2023-03-12T01:28:15;99548.00;;;-0.10
29423;BMP180;16399;51.686;8.684;2023-03-12T01:31:18;99539.00;;;0.00
29423;BMP180;16399;51.686;8.684;2023-03-12T01:34:21;99537.00;;;-0.10
29423;BMP180;16399;51.686;8.684;2023-03-12T01:37:23;99526.00;;;-0.10
29423;BMP180;16399;51.686;8.684;2023-03-12T01:40:26;99535.00;;;-0.10
29423;BMP180;16399;51.686;8.684;2023-03-12T01:43:32;99524.00;;;-0.10
29423;BMP180;16399;51.686;8.684;2023-03-12T01:46:39;99506.00;;;-0.20
29423;BMP180;16399;51.686;8.684;2023-03-12T01:49:47;99513.00;;;-0.20
29423;BMP180;16399;51.686;8.684;2023-03-12T01:52:49;99509.00;;;-0.30
29423;BMP180;16399;51.686;8.684;2023-03-12T01:55:52;99506.00;;;-0.30
29423;BMP180;16399;51.686;8.684;2023-03-12T01:58:57;99505.00;;;-0.40
29423;BMP180;16399;51.686;8.684;2023-03-12T02:02:00;99511.00;;;-0.40
29423;BMP180;16399;51.686;8.684;2023-03-12T02:05:10;99516.00;;;-0.40
29423;BMP180;16399;51.686;8.684;2023-03-12T02:08:13;99506.00;;;-0.50
29423;BMP180;16399;51.686;8.684;2023-03-12T02:11:16;99512.00;;;-0.40
29423;BMP180;16399;51.686;8.684;2023-03-12T02:14:18;99514.00;;;-0.40
29423;BMP180;16399;51.686;8.684;2023-03-12T02:17:24;99500.00;;;-0.40
29423;BMP180;16399;51.686;8.684;2023-03-12T02:20:57;99497.00;;;-0.30
29423;BMP180;16399;51.686;8.684;2023-03-12T02:24:25;99501.00;;;-0.30
29423;BMP180;16399;51.686;8.684;2023-03-12T02:27:27;99506.00;;;-0.20
29423;BMP180;16399;51.686;8.684;2023-03-12T02:30:30;99504.00;;;-0.20
29423;BMP180;16399;51.686;8.684;2023-03-12T02:33:33;99493.00;;;-0.10
29423;BMP180;16399;51.686;8.684;2023-03-12T02:36:35;99501.00;;;-0.10
29423;BMP180;16399;51.686;8.684;2023-03-12T02:39:38;99501.00;;;-0.10
29423;BMP180;16399;51.686;8.684;2023-03-12T02:42:41;99491.00;;;0.00
29423;BMP180;16399;51.686;8.684;2023-03-12T02:45:45;99492.00;;;0.00
29423;BMP180;16399;51.686;8.684;2023-03-12T02:48:48;99478.00;;;0.00
29423;BMP180;16399;51.686;8.684;2023-03-12T02:51:51;99477.00;;;0.10
29423;BMP180;16399;51.686;8.684;2023-03-12T02:54:54;99477.00;;;0.10
29423;BMP180;16399;51.686;8.684;2023-03-12T02:57:56;99476.00;;;0.20
29423;BMP180;16399;51.686;8.684;2023-03-12T03:00:58;99477.00;;;0.20
29423;BMP180;16399;51.686;8.684;2023-03-12T03:04:02;99471.00;;;0.20
29423;BMP180;16399;51.686;8.684;2023-03-12T03:07:24;99477.00;;;0.30
29423;BMP180;16399;51.686;8.684;2023-03-12T03:10:26;99477.00;;;0.30
29423;BMP180;16399;51.686;8.684;2023-03-12T03:13:29;99480.00;;;0.30
29423;BMP180;16399;51.686;8.684;2023-03-12T03:16:33;99476.00;;;0.40
29423;BMP180;16399;51.686;8.684;2023-03-12T03:19:35;99477.00;;;0.40
29423;BMP180;16399;51.686;8.684;2023-03-12T03:22:38;99472.00;;;0.40
29423;BMP180;16399;51.686;8.684;2023-03-12T03:25:40;99459.00;;;0.50
29423;BMP180;16399;51.686;8.684;2023-03-12T03:28:43;99457.00;;;0.50
29423;BMP180;16399;51.686;8.684;2023-03-12T03:31:45;99457.00;;;0.50
29423;BMP180;16399;51.686;8.684;2023-03-12T03:34:47;99453.00;;;0.50
29423;BMP180;16399;51.686;8.684;2023-03-12T03:37:49;99458.00;;;0.50
29423;BMP180;16399;51.686;8.684;2023-03-12T03:40:52;99458.00;;;0.60
29423;BMP180;16399;51.686;8.684;2023-03-12T03:43:57;99458.00;;;0.60
29423;BMP180;16399;51.686;8.684;2023-03-12T03:46:59;99440.00;;;0.60
29423;BMP180;16399;51.686;8.684;2023-03-12T03:50:02;99444.00;;;0.70
29423;BMP180;16399;51.686;8.684;2023-03-12T03:53:05;99443.00;;;0.60
29423;BMP180;16399;51.686;8.684;2023-03-12T03:56:09;99446.00;;;0.60
29423;BMP180;16399;51.686;8.684;2023-03-12T03:59:11;99443.00;;;0.60
29423;BMP180;16399;51.686;8.684;2023-03-12T04:02:13;99434.00;;;0.60
29423;BMP180;16399;51.686;8.684;2023-03-12T04:05:16;99439.00;;;0.60
29423;BMP180;16399;51.686;8.684;2023-03-12T04:08:19;99446.00;;;0.60
29423;BMP180;16399;51.686;8.684;2023-03-12T04:11:22;99430.00;;;0.60
29423;BMP180;16399;51.686;8.684;2023-03-12T04:14:24;99446.00;;;0.50
29423;BMP180;16399;51.686;8.684;2023-03-12T04:17:26;99438.00;;;0.60
29423;BMP180;16399;51.686;8.684;2023-03-12T04:20:28;99435.00;;;0.50
29423;BMP180;16399;51.686;8.684;2023-03-12T04:23:31;99427.00;;;0.50
29423;BMP180;16399;51.686;8.684;2023-03-12T04:26:33;99424.00;;;0.50
29423;BMP180;16399;51.686;8.684;2023-03-12T04:29:36;99419.00;;;0.50
29423;BMP180;16399;51.686;8.684;2023-03-12T04:32:39;99417.00;;;0.50
29423;BMP180;16399;51.686;8.684;2023-03-12T04:35:48;99416.00;;;0.50
29423;BMP180;16399;51.686;8.684;2023-03-12T04:38:47;99419.00;;;0.50
29423;BMP180;16399;51.686;8.684;2023-03-12T04:41:49;99417.00;;;0.50
29423;BMP180;16399;51.686;8.684;2023-03-12T04:44:51;99422.00;;;0.50
29423;BMP180;16399;51.686;8.684;2023-03-12T04:47:54;99425.00;;;0.50
29423;BMP180;16399;51.686;8.684;2023-03-12T04:50:56;99414.00;;;0.50
29423;BMP180;16399;51.686;8.684;2023-03-12T04:53:59;99407.00;;;0.60
29423;BMP180;16399;51.686;8.684;2023-03-12T04:57:01;99395.00;;;0.60
29423;BMP180;16399;51.686;8.684;2023-03-12T05:00:04;99397.00;;;0.70
29423;BMP180;16399;51.686;8.684;2023-03-12T05:03:08;99404.00;;;0.80
29423;BMP180;16399;51.686;8.684;2023-03-12T05:06:10;99384.00;;;0.80
29423;BMP180;16399;51.686;8.684;2023-03-12T05:09:12;99388.00;;;0.80
29423;BMP180;16399;51.686;8.684;2023-03-12T05:12:15;99384.00;;;0.90
29423;BMP180;16399;51.686;8.684;2023-03-12T05:15:17;99376.00;;;0.90
29423;BMP180;16399;51.686;8.684;2023-03-12T05:18:20;99382.00;;;0.90
29423;BMP180;16399;51.686;8.684;2023-03-12T05:21:22;99374.00;;;0.90
29423;BMP180;16399;51.686;8.684;2023-03-12T05:24:24;99372.00;;;1.00
29423;BMP180;16399;51.686;8.684;2023-03-12T05:27:27;99369.00;;;1.00
29423;BMP180;16399;51.686;8.684;2023-03-12T05:30:29;99359.00;;;1.00
29423;BMP180;16399;51.686;8.684;2023-03-12T05:33:32;99357.00;;;1.00
29423;BMP180;16399;51.686;8.684;2023-03-12T05:36:34;99360.00;;;1.00
29423;BMP180;16399;51.686;8.684;2023-03-12T05:39:36;99351.00;;;1.00
29423;BMP180;16399;51.686;8.684;2023-03-12T05:42:39;99355.00;;;0.90
29423;BMP180;16399;51.686;8.684;2023-03-12T05:45:41;99357.00;;;0.90
29423;BMP180;16399;51.686;8.684;2023-03-12T05:48:44;99359.00;;;0.90
29423;BMP180;16399;51.686;8.684;2023-03-12T05:51:48;99362.00;;;0.90
29423;BMP180;16399;51.686;8.684;2023-03-12T05:54:51;99359.00;;;0.90
29423;BMP180;16399;51.686;8.684;2023-03-12T05:57:54;99340.00;;;1.00
29423;BMP180;16399;51.686;8.684;2023-03-12T06:00:56;99336.00;;;1.00
29423;BMP180;16399;51.686;8.684;2023-03-12T06:03:58;99338.00;;;1.00
29423;BMP180;16399;51.686;8.684;2023-03-12T06:07:01;99337.00;;;1.00
29423;BMP180;16399;51.686;8.684;2023-03-12T06:10:03;99330.00;;;1.10
29423;BMP180;16399;51.686;8.684;2023-03-12T06:13:06;99319.00;;;1.20
29423;BMP180;16399;51.686;8.684;2023-03-12T06:16:11;99320.00;;;1.20
29423;BMP180;16399;51.686;8.684;2023-03-12T06:19:14;99298.00;;;1.30
29423;BMP180;16399;51.686;8.684;2023-03-12T06:22:16;99300.00;;;1.30
29423;BMP180;16399;51.686;8.684;2023-03-12T06:25:18;99297.00;;;1.40
29423;BMP180;16399;51.686;8.684;2023-03-12T06:28:21;99307.00;;;1.50
29423;BMP180;16399;51.686;8.684;2023-03-12T06:31:23;99309.00;;;1.60
29423;BMP180;16399;51.686;8.684;2023-03-12T06:34:26;99306.00;;;1.70
29423;BMP180;16399;51.686;8.684;2023-03-12T06:37:28;99304.00;;;1.80
29423;BMP180;16399;51.686;8.684;2023-03-12T06:40:30;99289.00;;;1.80
29423;BMP180;16399;51.686;8.684;2023-03-12T06:43:34;99289.00;;;1.90
29423;BMP180;16399;51.686;8.684;2023-03-12T06:46:37;99274.00;;;2.00
29423;BMP180;16399;51.686;8.684;2023-03-12T06:49:39;99285.00;;;2.00
29423;BMP180;16399;51.686;8.684;2023-03-12T06:52:42;99267.00;;;2.00
29423;BMP180;16399;51.686;8.684;2023-03-12T06:55:44;99270.00;;;2.10
29423;BMP180;16399;51.686;8.684;2023-03-12T06:58:47;99269.00;;;2.10
29423;BMP180;16399;51.686;8.684;2023-03-12T07:01:50;99260.00;;;2.10
29423;BMP180;16399;51.686;8.684;2023-03-12T07:04:52;99267.00;;;2.20
29423;BMP180;16399;51.686;8.684;2023-03-12T07:07:54;99261.00;;;2.30
29423;BMP180;16399;51.686;8.684;2023-03-12T07:10:57;99244.00;;;2.40
29423;BMP180;16399;51.686;8.684;2023-03-12T07:14:01;99251.00;;;2.60
29423;BMP180;16399;51.686;8.684;2023-03-12T07:17:04;99232.00;;;2.70
29423;BMP180;16399;51.686;8.684;2023-03-12T07:20:06;99240.00;;;2.80
29423;BMP180;16399;51.686;8.684;2023-03-12T07:23:09;99245.00;;;2.90
29423;BMP180;16399;51.686;8.684;2023-03-12T07:26:12;99244.00;;;2.90
29423;BMP180;16399;51.686;8.684;2023-03-12T07:29:14;99250.00;;;3.00
29423;BMP180;16399;51.686;8.684;2023-03-12T07:32:16;99258.00;;;3.10
29423;BMP180;16399;51.686;8.684;2023-03-12T07:35:18;99250.00;;;3.10
29423;BMP180;16399;51.686;8.684;2023-03-12T07:38:21;99229.00;;;3.10
29423;BMP180;16399;51.686;8.684;2023-03-12T07:41:23;99235.00;;;3.20
29423;BMP180;16399;51.686;8.684;2023-03-12T07:44:25;99246.00;;;3.20
29423;BMP180;16399;51.686;8.684;2023-03-12T07:47:28;99245.00;;;3.30
29423;BMP180;16399;51.686;8.684;2023-03-12T07:50:31;99237.00;;;3.30
29423;BMP180;16399;51.686;8.684;2023-03-12T07:53:33;99247.00;;;3.50
29423;BMP180;16399;51.686;8.684;2023-03-12T07:56:35;99240.00;;;3.60
29423;BMP180;16399;51.686;8.684;2023-03-12T07:59:37;99239.00;;;3.70
29423;BMP180;16399;51.686;8.684;2023-03-12T08:02:40;99234.00;;;3.80
29423;BMP180;16399;51.686;8.684;2023-03-12T08:05:42;99218.00;;;3.80
29423;BMP180;16399;51.686;8.684;2023-03-12T08:08:45;99214.00;;;3.80
29423;BMP180;16399;51.686;8.684;2023-03-12T08:11:47;99205.00;;;3.90
29423;BMP180;16399;51.686;8.684;2023-03-12T08:14:49;99209.00;;;4.10
29423;BMP180;16399;51.686;8.684;2023-03-12T08:17:51;99210.00;;;4.30
29423;BMP180;16399;51.686;8.684;2023-03-12T08:20:54;99210.00;;;4.30
29423;BMP180;16399;51.686;8.684;2023-03-12T08:23:56;99196.00;;;4.30
29423;BMP180;16399;51.686;8.684;2023-03-12T08:26:59;99204.00;;;4.30
29423;BMP180;16399;51.686;8.684;2023-03-12T08:30:01;99185.00;;;4.40
29423;BMP180;16399;51.686;8.684;2023-03-12T08:33:04;99190.00;;;4.40
29423;BMP180;16399;51.686;8.684;2023-03-12T08:36:06;99195.00;;;4.40
29423;BMP180;16399;51.686;8.684;2023-03-12T08:39:09;99196.00;;;4.40
29423;BMP180;16399;51.686;8.684;2023-03-12T08:42:11;99184.00;;;4.30
29423;BMP180;16399;51.686;8.684;2023-03-12T08:45:13;99182.00;;;4.40
29423;BMP180;16399;51.686;8.684;2023-03-12T08:48:16;99176.00;;;4.50
29423;BMP180;16399;51.686;8.684;2023-03-12T08:51:18;99166.00;;;4.60
29423;BMP180;16399;51.686;8.684;2023-03-12T08:54:21;99174.00;;;4.60
29423;BMP180;16399;51.686;8.684;2023-03-12T08:57:24;99163.00;;;4.60
29423;BMP180;16399;51.686;8.684;2023-03-12T09:00:26;99159.00;;;4.60
29423;BMP180;16399;51.686;8.684;2023-03-12T09:03:29;99147.00;;;4.70
29423;BMP180;16399;51.686;8.684;2023-03-12T09:06:32;99161.00;;;4.80
29423;BMP180;16399;51.686;8.684;2023-03-12T09:09:35;99162.00;;;4.80
29423;BMP180;16399;51.686;8.684;2023-03-12T09:12:37;99181.00;;;4.80
29423;BMP180;16399;51.686;8.684;2023-03-12T09:15:40;99172.00;;;4.70
29423;BMP180;16399;51.686;8.684;2023-03-12T09:18:42;99183.00;;;4.60
29423;BMP180;16399;51.686;8.684;2023-03-12T09:21:44;99183.00;;;4.60
29423;BMP180;16399;51.686;8.684;2023-03-12T09:24:47;99187.00;;;4.60
29423;BMP180;16399;51.686;8.684;2023-03-12T09:27:49;99179.00;;;4.50
29423;BMP180;16399;51.686;8.684;2023-03-12T09:30:51;99186.00;;;4.50
29423;BMP180;16399;51.686;8.684;2023-03-12T09:33:53;99176.00;;;4.40
29423;BMP180;16399;51.686;8.684;2023-03-12T09:36:56;99187.00;;;4.40
29423;BMP180;16399;51.686;8.684;2023-03-12T09:39:58;99189.00;;;4.40
29423;BMP180;16399;51.686;8.684;2023-03-12T09:43:25;99187.00;;;4.30
29423;BMP180;16399;51.686;8.684;2023-03-12T09:46:36;99187.00;;;4.20
29423;BMP180;16399;51.686;8.684;2023-03-12T09:49:44;99187.00;;;4.10
29423;BMP180;16399;51.686;8.684;2023-03-12T09:55:57;99178.00;;;3.90
29423;BMP180;16399;51.686;8.684;2023-03-12T09:59:01;99172.00;;;3.90
29423;BMP180;16399;51.686;8.684;2023-03-12T10:02:14;99172.00;;;3.80
29423;BMP180;16399;51.686;8.684;2023-03-12T10:08:36;99176.00;;;3.60
29423;BMP180;16399;51.686;8.684;2023-03-12T10:11:57;99171.00;;;3.50
29423;BMP180;16399;51.686;8.684;2023-03-12T10:18:33;99175.00;;;3.40
29423;BMP180;16399;51.686;8.684;2023-03-12T10:21:51;99158.00;;;3.40
29423;BMP180;16399;51.686;8.684;2023-03-12T10:25:15;99160.00;;;3.30
29423;BMP180;16399;51.686;8.684;2023-03-12T10:28:19;99153.00;;;3.30
29423;BMP180;16399;51.686;8.684;2023-03-12T10:34:53;99148.00;;;3.20
29423;BMP180;16399;51.686;8.684;2023-03-12T10:38:03;99143.00;;;3.30
29423;BMP180;16399;51.686;8.684;2023-03-12T10:41:15;99148.00;;;3.40
29423;BMP180;16399;51.686;8.684;2023-03-12T10:44:20;99150.00;;;3.40
29423;BMP180;16399;51.686;8.684;2023-03-12T10:47:40;99151.00;;;3.50
29423;BMP180;16399;51.686;8.684;2023-03-12T10:50:42;99151.00;;;3.50
29423;BMP180;16399;51.686;8.684;2023-03-12T10:53:49;99147.00;;;3.60
29423;BMP180;16399;51.686;8.684;2023-03-12T10:56:52;99143.00;;;3.60
29423;BMP180;16399;51.686;8.684;2023-03-12T11:00:03;99135.00;;;3.70
29423;BMP180;16399;51.686;8.684;2023-03-12T11:03:05;99147.00;;;3.70
29423;BMP180;16399;51.686;8.684;2023-03-12T11:06:09;99156.00;;;3.80
29423;BMP180;16399;51.686;8.684;2023-03-12T11:09:18;99153.00;;;3.80
29423;BMP180;16399;51.686;8.684;2023-03-12T11:12:29;99158.00;;;3.90
29423;BMP180;16399;51.686;8.684;2023-03-12T11:15:42;99147.00;;;3.80
29423;BMP180;16399;51.686;8.684;2023-03-12T11:19:02;99148.00;;;3.80
29423;BMP180;16399;51.686;8.684;2023-03-12T11:22:06;99137.00;;;3.90
29423;BMP180;16399;51.686;8.684;2023-03-12T11:25:21;99136.00;;;3.90
29423;BMP180;16399;51.686;8.684;2023-03-12T11:28:27;99129.00;;;3.90
29423;BMP180;16399;51.686;8.684;2023-03-12T11:31:33;99130.00;;;4.00
29423;BMP180;16399;51.686;8.684;2023-03-12T11:34:37;99126.00;;;4.00
29423;BMP180;16399;51.686;8.684;2023-03-12T11:37:47;99126.00;;;4.00
29423;BMP180;16399;51.686;8.684;2023-03-12T11:41:03;99124.00;;;4.00
29423;BMP180;16399;51.686;8.684;2023-03-12T11:44:11;99130.00;;;4.00
29423;BMP180;16399;51.686;8.684;2023-03-12T11:47:14;99124.00;;;4.00
29423;BMP180;16399;51.686;8.684;2023-03-12T11:50:26;99120.00;;;4.00
29423;BMP180;16399;51.686;8.684;2023-03-12T11:53:48;99124.00;;;4.00
29423;BMP180;16399;51.686;8.684;2023-03-12T11:56:50;99130.00;;;4.10
29423;BMP180;16399;51.686;8.684;2023-03-12T12:00:14;99114.00;;;4.20
29423;BMP180;16399;51.686;8.684;2023-03-12T12:06:48;99119.00;;;4.30
29423;BMP180;16399;51.686;8.684;2023-03-12T12:16:18;99106.00;;;4.50
29423;BMP180;16399;51.686;8.684;2023-03-12T12:22:33;99086.00;;;4.70
29423;BMP180;16399;51.686;8.684;2023-03-12T12:26:06;99088.00;;;4.70
29423;BMP180;16399;51.686;8.684;2023-03-12T12:35:45;99067.00;;;5.00
29423;BMP180;16399;51.686;8.684;2023-03-12T12:38:51;99085.00;;;5.10
29423;BMP180;16399;51.686;8.684;2023-03-12T12:41:54;99092.00;;;5.30
29423;BMP180;16399;51.686;8.684;2023-03-12T12:44:59;99082.00;;;5.50
29423;BMP180;16399;51.686;8.684;2023-03-12T12:48:16;99072.00;;;5.70
29423;BMP180;16399;51.686;8.684;2023-03-12T12:51:20;99060.00;;;5.80
29423;BMP180;16399;51.686;8.684;2023-03-12T12:54:47;99071.00;;;6.00
29423;BMP180;16399;51.686;8.684;2023-03-12T12:57:54;99061.00;;;6.10
29423;BMP180;16399;51.686;8.684;2023-03-12T13:00:59;99053.00;;;6.30
29423;BMP180;16399;51.686;8.684;2023-03-12T13:04:14;99048.00;;;6.40
29423;BMP180;16399;51.686;8.684;2023-03-12T13:13:35;99047.00;;;6.80
29423;BMP180;16399;51.686;8.684;2023-03-12T13:16:45;99048.00;;;6.90
29423;BMP180;16399;51.686;8.684;2023-03-12T13:19:50;99049.00;;;7.00
29423;BMP180;16399;51.686;8.684;2023-03-12T13:29:49;99022.00;;;7.20
29423;BMP180;16399;51.686;8.684;2023-03-12T13:36:27;99026.00;;;7.20
29423;BMP180;16399;51.686;8.684;2023-03-12T13:39:36;99032.00;;;7.30
29423;BMP180;16399;51.686;8.684;2023-03-12T13:42:39;99032.00;;;7.40
29423;BMP180;16399;51.686;8.684;2023-03-12T13:46:00;99033.00;;;7.40
29423;BMP180;16399;51.686;8.684;2023-03-12T13:49:05;99026.00;;;7.50
29423;BMP180;16399;51.686;8.684;2023-03-12T13:52:28;99035.00;;;7.50
29423;BMP180;16399;51.686;8.684;2023-03-12T13:55:34;99024.00;;;7.50
29423;BMP180;16399;51.686;8.684;2023-03-12T14:01:56;99015.00;;;7.60
29423;BMP180;16399;51.686;8.684;2023-03-12T14:05:05;99003.00;;;7.60
29423;BMP180;16399;51.686;8.684;2023-03-12T14:11:46;98990.00;;;7.80
29423;BMP180;16399;51.686;8.684;2023-03-12T14:15:00;99000.00;;;7.80
29423;BMP180;16399;51.686;8.684;2023-03-12T14:18:04;99005.00;;;7.90
29423;BMP180;16399;51.686;8.684;2023-03-12T14:21:12;98995.00;;;7.90
29423;BMP180;16399;51.686;8.684;2023-03-12T14:24:21;99004.00;;;8.00
29423;BMP180;16399;51.686;8.684;2023-03-12T14:27:28;99014.00;;;8.00
29423;BMP180;16399;51.686;8.684;2023-03-12T14:30:36;99001.00;;;8.10
29423;BMP180;16399;51.686;8.684;2023-03-12T14:33:57;99004.00;;;8.10
29423;BMP180;16399;51.686;8.684;2023-03-12T14:36:59;99001.00;;;8.10
29423;BMP180;16399;51.686;8.684;2023-03-12T14:40:07;99011.00;;;8.10
29423;BMP180;16399;51.686;8.684;2023-03-12T14:43:24;99008.00;;;8.10
29423;BMP180;16399;51.686;8.684;2023-03-12T14:46:26;99010.00;;;8.10
29423;BMP180;16399;51.686;8.684;2023-03-12T14:49:30;99018.00;;;8.00
29423;BMP180;16399;51.686;8.684;2023-03-12T14:52:32;99020.00;;;8.10
29423;BMP180;16399;51.686;8.684;2023-03-12T14:55:35;99010.00;;;8.10
29423;BMP180;16399;51.686;8.684;2023-03-12T14:58:45;99013.00;;;8.20
29423;BMP180;16399;51.686;8.684;2023-03-12T15:01:48;99027.00;;;8.30
29423;BMP180;16399;51.686;8.684;2023-03-12T15:04:58;99019.00;;;8.50
29423;BMP180;16399;51.686;8.684;2023-03-12T15:08:00;99018.00;;;8.60
29423;BMP180;16399;51.686;8.684;2023-03-12T15:11:03;99019.00;;;8.60
29423;BMP180;16399;51.686;8.684;2023-03-12T15:14:12;99018.00;;;8.70
29423;BMP180;16399;51.686;8.684;2023-03-12T15:17:18;99021.00;;;8.80
29423;BMP180;16399;51.686;8.684;2023-03-12T15:20:24;99017.00;;;8.80
29423;BMP180;16399;51.686;8.684;2023-03-12T15:23:29;99016.00;;;8.80
29423;BMP180;16399;51.686;8.684;2023-03-12T15:26:33;98999.00;;;8.90
29423;BMP180;16399;51.686;8.684;2023-03-12T15:29:39;99008.00;;;9.00
29423;BMP180;16399;51.686;8.684;2023-03-12T15:32:40;98991.00;;;9.00
29423;BMP180;16399;51.686;8.684;2023-03-12T15:36:00;98992.00;;;9.00
29423;BMP180;16399;51.686;8.684;2023-03-12T15:39:27;98983.00;;;9.10
29423;BMP180;16399;51.686;8.684;2023-03-12T15:42:13;98984.00;;;9.10
29423;BMP180;16399;51.686;8.684;2023-03-12T15:45:40;98982.00;;;9.10
29423;BMP180;16399;51.686;8.684;2023-03-12T15:48:39;98998.00;;;9.10
29423;BMP180;16399;51.686;8.684;2023-03-12T15:51:42;98992.00;;;9.10
29423;BMP180;16399;51.686;8.684;2023-03-12T15:55:05;98997.00;;;9.10
29423;BMP180;16399;51.686;8.684;2023-03-12T15:58:27;98991.00;;;9.10
29423;BMP180;16399;51.686;8.684;2023-03-12T16:01:43;99003.00;;;9.20
29423;BMP180;16399;51.686;8.684;2023-03-12T16:04:45;99003.00;;;9.20
29423;BMP180;16399;51.686;8.684;2023-03-12T16:07:47;99006.00;;;9.20
29423;BMP180;16399;51.686;8.684;2023-03-12T16:10:50;99014.00;;;9.20
29423;BMP180;16399;51.686;8.684;2023-03-12T16:14:02;99009.00;;;9.20
29423;BMP180;16399;51.686;8.684;2023-03-12T16:17:01;99002.00;;;9.20
29423;BMP180;16399;51.686;8.684;2023-03-12T16:20:03;99009.00;;;9.20
29423;BMP180;16399;51.686;8.684;2023-03-12T16:23:06;98993.00;;;9.20
29423;BMP180;16399;51.686;8.684;2023-03-12T16:26:10;99006.00;;;9.20
29423;BMP180;16399;51.686;8.684;2023-03-12T16:29:15;98998.00;;;9.20
29423;BMP180;16399;51.686;8.684;2023-03-12T16:32:18;98989.00;;;9.20
29423;BMP180;16399;51.686;8.684;2023-03-12T16:35:20;98987.00;;;9.20
29423;BMP180;16399;51.686;8.684;2023-03-12T16:38:23;98987.00;;;9.10
29423;BMP180;16399;51.686;8.684;2023-03-12T16:41:25;98992.00;;;9.10
29423;BMP180;16399;51.686;8.684;2023-03-12T16:44:31;98988.00;;;9.10
29423;BMP180;16399;51.686;8.684;2023-03-12T16:47:34;98995.00;;;9.10
29423;BMP180;16399;51.686;8.684;2023-03-12T16:50:36;98985.00;;;9.10
29423;BMP180;16399;51.686;8.684;2023-03-12T16:53:39;98986.00;;;9.10
29423;BMP180;16399;51.686;8.684;2023-03-12T16:56:44;98985.00;;;9.10
29423;BMP180;16399;51.686;8.684;2023-03-12T16:59:47;98999.00;;;9.00
29423;BMP180;16399;51.686;8.684;2023-03-12T17:02:50;99010.00;;;9.00
29423;BMP180;16399;51.686;8.684;2023-03-12T17:05:57;98994.00;;;9.10
29423;BMP180;16399;51.686;8.684;2023-03-12T17:08:59;99002.00;;;9.10
29423;BMP180;16399;51.686;8.684;2023-03-12T17:12:02;98990.00;;;9.10
29423;BMP180;16399;51.686;8.684;2023-03-12T17:15:07;98985.00;;;9.00
29423;BMP180;16399;51.686;8.684;2023-03-12T17:18:11;98993.00;;;9.10
29423;BMP180;16399;51.686;8.684;2023-03-12T17:21:14;99002.00;;;9.10
29423;BMP180;16399;51.686;8.684;2023-03-12T17:24:17;99003.00;;;9.10
29423;BMP180;16399;51.686;8.684;2023-03-12T17:27:19;98993.00;;;9.10
29423;BMP180;16399;51.686;8.684;2023-03-12T17:30:22;99009.00;;;9.10
29423;BMP180;16399;51.686;8.684;2023-03-12T17:33:25;99005.00;;;9.10
29423;BMP180;16399;51.686;8.684;2023-03-12T17:36:27;99007.00;;;9.10
29423;BMP180;16399;51.686;8.684;2023-03-12T17:39:29;99015.00;;;9.10
29423;BMP180;16399;51.686;8.684;2023-03-12T17:42:32;99015.00;;;9.20
29423;BMP180;16399;51.686;8.684;2023-03-12T17:45:34;99012.00;;;9.20
29423;BMP180;16399;51.686;8.684;2023-03-12T17:48:39;99023.00;;;9.30
29423;BMP180;16399;51.686;8.684;2023-03-12T17:51:42;99020.00;;;9.30
29423;BMP180;16399;51.686;8.684;2023-03-12T17:54:45;99021.00;;;9.30
29423;BMP180;16399;51.686;8.684;2023-03-12T17:57:47;99035.00;;;9.30
29423;BMP180;16399;51.686;8.684;2023-03-12T18:00:50;99034.00;;;9.30
29423;BMP180;16399;51.686;8.684;2023-03-12T18:03:54;99032.00;;;9.40
29423;BMP180;16399;51.686;8.684;2023-03-12T18:06:56;99034.00;;;9.40
29423;BMP180;16399;51.686;8.684;2023-03-12T18:10:00;99038.00;;;9.40
29423;BMP180;16399;51.686;8.684;2023-03-12T18:13:02;99027.00;;;9.40
29423;BMP180;16399;51.686;8.684;2023-03-12T18:16:05;99035.00;;;9.40
29423;BMP180;16399;51.686;8.684;2023-03-12T18:19:07;99039.00;;;9.50
29423;BMP180;16399;51.686;8.684;2023-03-12T18:22:11;99035.00;;;9.50
29423;BMP180;16399;51.686;8.684;2023-03-12T18:25:14;99040.00;;;9.50
29423;BMP180;16399;51.686;8.684;2023-03-12T18:28:17;99044.00;;;9.50
29423;BMP180;16399;51.686;8.684;2023-03-12T18:31:19;99034.00;;;9.50
29423;BMP180;16399;51.686;8.684;2023-03-12T18:34:21;99044.00;;;9.50
29423;BMP180;16399;51.686;8.684;2023-03-12T18:37:24;99038.00;;;9.40
29423;BMP180;16399;51.686;8.684;2023-03-12T18:40:26;99048.00;;;9.40
29423;BMP180;16399;51.686;8.684;2023-03-12T18:43:30;99053.00;;;9.40
29423;BMP180;16399;51.686;8.684;2023-03-12T18:46:33;99065.00;;;9.40
29423;BMP180;16399;51.686;8.684;2023-03-12T18:49:35;99067.00;;;9.50
29423;BMP180;16399;51.686;8.684;2023-03-12T18:52:38;99074.00;;;9.50
29423;BMP180;16399;51.686;8.684;2023-03-12T18:55:40;99075.00;;;9.50